Hovedside
METAR-TAF:

METAR-TAF

Lufthavner :

Førde, Norge

Førde lufthamn

breddegrad: 61-27N, lengdegrad: 005-52E, høyde over havet: 150 m

Gjeldene værobservasjon

Denne rapporten ble laget for 29 minutter siden, klokken 20:20 UTC
Vind 2 kt fra Vest-sørvest
Temperatur 5°C
Luftfuktighet 93%
Trykk 1026 hPa
Sikt: 1000 m
Spredte skyer i en høyde av 500 ft
Brutte skyer i en høyde av 1000 ft
tåkebanker

METAR: ENBL 262020Z 24002KT 1000 BCFG SWCT002 SCT005 BKN010 05/04 Q1026

Tid: 22:49 (20:49 UTC)


TAF: fraværende

Værobservasjoner og værvarsel for over 4000 flyplasser (METAR- og TAF-rapporter).

Tilgjengelige stasjoner er representert av de røde og gule prikkene på kartet.

Hold musepekeren over prikken for å se navnet på stasjonen.

Klikk så for å se værobservasjoner og -varsler.

For å forandre kartet kan du klikke på den grønne knappen med svart kryss for å zoome inn, på den grønne knappen med strek for å zoome ut, eller på de grønne pilene for å se tilstøtende kart.


METAR-TAF: